createdAt,value
2023-02-15T00:04:49.804Z,100736.45
2023-02-15T00:09:53.213Z,100732.95
2023-02-15T00:14:56.540Z,100729.41
2023-02-15T00:19:59.869Z,100734.90
2023-02-15T00:25:03.228Z,100732.88
2023-02-15T00:30:07.478Z,100725.50
2023-02-15T00:35:10.991Z,100717.70
2023-02-15T00:40:15.146Z,100712.07
2023-02-15T00:45:19.486Z,100712.83
2023-02-15T00:50:23.947Z,100713.33
2023-02-15T00:55:27.966Z,100708.40
2023-02-15T01:00:33.709Z,100700.11
2023-02-15T01:05:37.424Z,100695.33
2023-02-15T01:10:40.942Z,100684.42
2023-02-15T01:15:46.819Z,100682.53
2023-02-15T01:20:51.270Z,100678.38
2023-02-15T01:25:54.677Z,100681.05
2023-02-15T01:30:58.274Z,100674.35
2023-02-15T01:36:02.244Z,100675.05
2023-02-15T01:41:21.445Z,100667.32
2023-02-15T01:46:45.590Z,100669.09
2023-02-15T01:51:52.457Z,100665.52
2023-02-15T01:57:04.022Z,100661.68
2023-02-15T02:02:11.069Z,100657.64
2023-02-15T02:07:17.498Z,100651.27
2023-02-15T02:12:23.038Z,100643.38
2023-02-15T02:17:40.887Z,100639.52
2023-02-15T02:23:22.169Z,100635.83
2023-02-15T02:28:59.322Z,100635.17
2023-02-15T02:34:10.933Z,100631.52
2023-02-15T02:39:14.980Z,100628.73
2023-02-15T02:44:24.267Z,100622.56
2023-02-15T02:49:37.977Z,100622.08
2023-02-15T02:54:41.379Z,100623.77
2023-02-15T02:59:48.014Z,100619.95
2023-02-15T03:04:59.600Z,100616.86
2023-02-15T03:10:06.199Z,100616.54
2023-02-15T03:15:20.532Z,100610.22
2023-02-15T03:20:29.092Z,100607.77
2023-02-15T03:25:41.036Z,100605.11
2023-02-15T03:30:49.159Z,100604.48
2023-02-15T03:36:01.044Z,100600.05
2023-02-15T03:41:12.046Z,100595.08
2023-02-15T03:46:29.285Z,100590.72
2023-02-15T03:51:39.234Z,100585.27
2023-02-15T03:57:03.664Z,100584.34
2023-02-15T04:02:22.945Z,100582.96
2023-02-15T04:07:26.224Z,100590.14
2023-02-15T04:12:29.432Z,100586.39
2023-02-15T04:17:32.795Z,100590.33
2023-02-15T04:22:55.201Z,100592.41
2023-02-15T04:27:58.614Z,100588.08
2023-02-15T04:33:02.097Z,100588.99
2023-02-15T04:38:05.551Z,100584.56
2023-02-15T04:43:08.945Z,100583.52
2023-02-15T04:48:12.580Z,100579.35
2023-02-15T04:53:18.749Z,100580.52
2023-02-15T04:58:22.235Z,100584.39
2023-02-15T05:03:26.172Z,100584.78
2023-02-15T05:08:29.565Z,100589.30
2023-02-15T05:13:33.324Z,100590.42
2023-02-15T05:18:36.886Z,100592.98
2023-02-15T05:23:40.405Z,100597.86
2023-02-15T05:28:44.538Z,100586.27
2023-02-15T05:33:48.120Z,100588.38
2023-02-15T05:38:51.837Z,100590.98
2023-02-15T05:43:57.914Z,100594.66
2023-02-15T05:49:01.888Z,100597.89
2023-02-15T05:54:05.217Z,100597.87
2023-02-15T05:59:09.102Z,100597.43
2023-02-15T06:04:13.860Z,100598.13
2023-02-15T06:09:19.491Z,100599.41
2023-02-15T06:14:23.451Z,100594.89
2023-02-15T06:19:26.898Z,100594.77
2023-02-15T06:24:30.389Z,100596.90
2023-02-15T06:29:33.693Z,100598.33
2023-02-15T06:34:37.053Z,100600.34
2023-02-15T06:39:40.594Z,100601.80
2023-02-15T06:44:43.940Z,100602.67
2023-02-15T06:49:47.401Z,100603.24
2023-02-15T06:54:51.631Z,100606.56
2023-02-15T06:59:55.342Z,100606.02
2023-02-15T07:04:59.190Z,100601.38
2023-02-15T07:10:03.289Z,100599.83
2023-02-15T07:15:07.798Z,100597.09
2023-02-15T07:20:14.855Z,100592.85
2023-02-15T07:25:18.668Z,100589.46
2023-02-15T07:30:22.095Z,100589.38
2023-02-15T07:35:26.246Z,100587.95
2023-02-15T07:40:29.972Z,100583.50
2023-02-15T07:45:33.429Z,100584.32
2023-02-15T07:50:36.750Z,100584.77
2023-02-15T07:55:40.294Z,100579.39
2023-02-15T08:00:59.063Z,100578.17
2023-02-15T08:06:05.863Z,100576.52
2023-02-15T08:11:34.877Z,100572.02
2023-02-15T08:16:42.134Z,100565.27
2023-02-15T08:21:51.600Z,100565.09
2023-02-15T08:26:56.333Z,100564.42
2023-02-15T08:32:04.636Z,100555.67
2023-02-15T08:37:08.976Z,100555.29
2023-02-15T08:42:14.687Z,100554.46
2023-02-15T08:47:19.546Z,100549.20
2023-02-15T08:52:24.387Z,100544.61
2023-02-15T08:57:29.334Z,100546.77
2023-02-15T09:02:33.784Z,100542.91
2023-02-15T09:07:38.588Z,100544.45
2023-02-15T09:12:42.979Z,100543.02
2023-02-15T09:17:47.130Z,100540.15
2023-02-15T09:22:58.128Z,100532.98
2023-02-15T09:28:04.111Z,100530.86
2023-02-15T09:33:07.530Z,100526.18
2023-02-15T09:38:13.303Z,100524.63
2023-02-15T09:43:35.702Z,100523.27
2023-02-15T09:48:50.039Z,100514.54
2023-02-15T09:54:12.374Z,100512.43
2023-02-15T09:59:34.138Z,100502.75
2023-02-15T10:05:05.659Z,100491.04
2023-02-15T10:10:53.769Z,100484.30
2023-02-15T10:16:07.126Z,100479.38
2023-02-15T10:21:25.995Z,100480.45
2023-02-15T10:26:42.378Z,100466.80
2023-02-15T10:31:55.547Z,100462.05
2023-02-15T10:37:27.348Z,100452.89
2023-02-15T10:42:53.593Z,100450.55
2023-02-15T10:48:15.530Z,100448.73
2023-02-15T10:53:21.977Z,100441.92
2023-02-15T10:58:56.981Z,100433.80
2023-02-15T11:04:37.745Z,100424.20
2023-02-15T11:09:49.588Z,100413.24
2023-02-15T11:15:20.977Z,100396.80
2023-02-15T11:20:34.348Z,100388.39
2023-02-15T11:25:38.124Z,100390.30
2023-02-15T11:30:47.203Z,100382.73
2023-02-15T11:35:53.962Z,100375.88
2023-02-15T11:41:04.012Z,100367.16
2023-02-15T11:46:12.490Z,100361.05
2023-02-15T11:51:19.029Z,100356.65
2023-02-15T11:56:27.372Z,100348.98
2023-02-15T12:01:41.405Z,100341.63
2023-02-15T12:07:03.319Z,100336.98
2023-02-15T12:12:28.240Z,100330.84
2023-02-15T12:17:35.953Z,100318.77
2023-02-15T12:22:40.389Z,100308.94
2023-02-15T12:27:44.574Z,100301.46
2023-02-15T12:33:06.464Z,100301.04
2023-02-15T12:38:12.462Z,100294.94
2023-02-15T12:43:35.660Z,100290.69
2023-02-15T12:48:40.719Z,100287.74
2023-02-15T12:53:45.299Z,100284.94
2023-02-15T12:58:48.856Z,100276.23
2023-02-15T13:04:15.313Z,100274.05
2023-02-15T13:09:33.370Z,100266.00
2023-02-15T13:14:37.469Z,100256.13
2023-02-15T13:19:46.091Z,100255.10
2023-02-15T13:25:00.490Z,100245.59
2023-02-15T13:30:16.426Z,100244.02
2023-02-15T13:35:20.334Z,100240.72
2023-02-15T13:40:32.561Z,100231.54
2023-02-15T13:46:31.188Z,100234.27
2023-02-15T13:51:55.323Z,100229.05
2023-02-15T13:57:20.473Z,100221.55
2023-02-15T14:02:36.686Z,100221.17
2023-02-15T14:07:42.602Z,100217.06
2023-02-15T14:13:20.593Z,100217.05
2023-02-15T14:18:36.908Z,100211.55
2023-02-15T14:23:59.714Z,100211.51
2023-02-15T14:29:21.796Z,100199.96
2023-02-15T14:34:46.072Z,100202.06
2023-02-15T14:40:22.813Z,100202.92
2023-02-15T14:45:54.198Z,100195.28
2023-02-15T14:50:57.665Z,100190.15
2023-02-15T14:56:20.625Z,100189.88
2023-02-15T15:01:28.220Z,100191.40
2023-02-15T15:06:34.163Z,100193.32
2023-02-15T15:11:46.599Z,100191.44
2023-02-15T15:16:52.224Z,100186.48
2023-02-15T15:21:57.735Z,100181.27
2023-02-15T15:27:27.297Z,100178.14
2023-02-15T15:32:35.065Z,100171.66
2023-02-15T15:37:47.522Z,100173.02
2023-02-15T15:42:51.626Z,100171.68
2023-02-15T15:48:30.317Z,100167.35
2023-02-15T15:53:43.464Z,100168.56
2023-02-15T15:58:53.528Z,100164.30
2023-02-15T16:03:59.570Z,100166.50
2023-02-15T16:09:27.408Z,100160.45
2023-02-15T16:14:36.518Z,100160.45
2023-02-15T16:19:42.962Z,100159.60
2023-02-15T16:25:01.978Z,100162.08
2023-02-15T16:30:36.656Z,100157.71
2023-02-15T16:43:43.598Z,100154.67
2023-02-15T16:48:52.671Z,100155.05
2023-02-15T16:54:02.293Z,100155.39
2023-02-15T17:00:44.696Z,100161.00
2023-02-15T17:05:55.012Z,100158.20
2023-02-15T17:11:14.640Z,100160.64
2023-02-15T18:07:45.036Z,100137.56
2023-02-15T19:12:53.279Z,100116.70
2023-02-15T19:17:56.733Z,100117.73
2023-02-15T19:23:02.074Z,100111.20
2023-02-15T19:28:37.943Z,100112.16
2023-02-15T19:33:46.293Z,100110.92
2023-02-15T20:52:59.263Z,100070.61
2023-02-15T21:04:48.068Z,100066.52
2023-02-15T21:10:02.775Z,100065.31
2023-02-15T21:16:29.260Z,100063.64
2023-02-15T21:22:22.072Z,100056.20
2023-02-15T21:28:30.796Z,100054.22
2023-02-15T21:34:22.138Z,100055.27
2023-02-15T21:40:06.400Z,100056.77
2023-02-15T21:45:56.465Z,100049.91
2023-02-15T21:52:09.574Z,100048.42
2023-02-15T21:58:10.111Z,100044.58
2023-02-15T22:10:02.352Z,100036.80
2023-02-15T22:16:17.778Z,100031.55
2023-02-15T22:28:52.778Z,100026.66
2023-02-15T22:35:25.663Z,100024.54
2023-02-15T22:41:38.722Z,100014.44
2023-02-15T22:46:56.770Z,100012.54
2023-02-15T22:53:28.814Z,100010.49
2023-02-15T22:59:14.738Z,100009.19
2023-02-15T23:05:13.538Z,100005.79
2023-02-15T23:10:46.770Z,100000.56
2023-02-15T23:16:54.282Z,100001.98
2023-02-15T23:23:13.061Z,99998.60
2023-02-15T23:29:03.750Z,99996.08
2023-02-15T23:35:11.741Z,99993.85
2023-02-15T23:41:24.495Z,99992.02
2023-02-15T23:47:17.871Z,99987.94
2023-02-15T23:53:39.898Z,99987.27
2023-02-15T23:59:23.350Z,99981.41
